Time;durP1;ratioP1;P1;durP2;ratioP2;P2;SDS_P1;SDS_P2;PMS_P1;PMS_P2;Temp;Humidity;BMP_temperature;BMP_pressure;BME280_temperature;BME280_humidity;BME280_pressure;Samples;Min_cycle;Max_cycle;Signal;HPM_P1;HPM_P2
2023/07/31 00:02:04;;;;;;;;;;;;;;;29.09;38.04;94443.88;5058209;28;6995;-60
2023/07/31 00:04:31;;;;;;;;;;;;;;;29.07;37.82;94440.88;5041217;28;8967;-60
2023/07/31 00:06:58;;;;;;;;;;;;;;;29.07;37.59;94440.13;5072455;28;7200;-60
2023/07/31 00:09:35;;;;;;;;;;;;;;;29.06;37.80;94444.16;5033253;28;9136;-60
2023/07/31 00:12:01;;;;;;;;;;;;;;;29.05;37.30;94437.91;5047314;28;7058;-60
2023/07/31 00:14:29;;;;;;;;;;;;;;;29.04;38.40;94428.09;5039224;28;8854;-61
2023/07/31 00:16:55;;;;;;;;;;;;;;;29.05;37.56;94423.31;5041475;28;7073;-62
2023/07/31 00:19:50;;;;;;;;;;;;;;;29.08;37.35;94436.06;5052524;28;7004;-61
2023/07/31 00:22:19;;;;;;;;;;;;;;;29.08;38.16;94431.28;5000604;28;7450;-61
2023/07/31 00:24:59;;;;;;;;;;;;;;;29.13;38.05;94420.63;4991063;28;9086;-62
2023/07/31 00:27:26;;;;;;;;;;;;;;;29.10;37.73;94406.56;5025815;28;7208;-62
2023/07/31 00:30:10;;;;;;;;;;;;;;;29.14;38.24;94422.13;4993238;28;7191;-62
2023/07/31 00:32:47;;;;;;;;;;;;;;;29.17;36.87;94435.69;4987515;28;9185;-61
2023/07/31 00:35:29;;;;;;;;;;;;;;;29.16;37.03;94427.88;5000295;28;7501;-62
2023/07/31 00:38:09;;;;;;;;;;;;;;;29.16;37.98;94430.66;4989128;28;9631;-62
2023/07/31 00:40:49;;;;;;;;;;;;;;;29.16;37.65;94430.66;4999163;28;6984;-61
2023/07/31 00:43:16;;;;;;;;;;;;;;;29.16;38.21;94430.66;5019370;28;9151;-61
2023/07/31 00:46:01;;;;;;;;;;;;;;;29.17;37.67;94427.38;5000686;28;7500;-62
2023/07/31 00:48:40;;;;;;;;;;;;;;;29.15;37.76;94437.47;4993514;28;7297;-62
2023/07/31 00:51:25;;;;;;;;;;;;;;;29.15;38.05;94431.91;4987808;28;7217;-62
2023/07/31 00:54:02;;;;;;;;;;;;;;;29.14;37.81;94427.66;4996115;28;7412;-62
2023/07/31 00:56:48;;;;;;;;;;;;;;;29.15;36.90;94432.66;5003378;28;7301;-62
2023/07/31 00:59:18;;;;;;;;;;;;;;;29.11;37.98;94418.41;5013514;28;7202;-62
2023/07/31 01:02:05;;;;;;;;;;;;;;;29.14;38.01;94416.59;5037156;28;7389;-62
2023/07/31 01:04:46;;;;;;;;;;;;;;;29.14;38.06;94424.91;5033736;28;7760;-61
2023/07/31 01:07:32;;;;;;;;;;;;;;;29.12;37.87;94421.94;5052089;28;8185;-61
2023/07/31 01:10:21;;;;;;;;;;;;;;;29.13;37.48;94423.41;5031019;28;7893;-62
2023/07/31 01:13:15;;;;;;;;;;;;;;;29.13;38.07;94415.09;5033667;28;7196;-62
2023/07/31 01:16:20;;;;;;;;;;;;;;;29.10;37.83;94414.88;5046219;28;7141;-62
2023/07/31 01:18:57;;;;;;;;;;;;;;;29.09;38.08;94420.97;5053776;28;9621;-62
2023/07/31 01:21:57;;;;;;;;;;;;;;;29.07;37.18;94421.50;5044282;28;9083;-62
2023/07/31 01:25:03;;;;;;;;;;;;;;;29.07;37.05;94417.97;5050233;28;7232;-55
2023/07/31 01:27:40;;;;;;;;;;;;;;;29.07;37.50;94404.88;4967565;28;7009;-56
2023/07/31 01:30:19;;;;;;;;;;;;;;;29.07;37.13;94393.81;4971780;28;8756;-56
2023/07/31 01:32:49;;;;;;;;;;;;;;;29.05;37.07;94385.28;4974223;28;7268;-56
2023/07/31 01:35:16;;;;;;;;;;;;;;;29.05;37.49;94396.38;4986409;28;9546;-56
2023/07/31 01:37:58;;;;;;;;;;;;;;;29.07;37.33;94401.38;4975109;28;7235;-56
2023/07/31 01:40:26;;;;;;;;;;;;;;;29.06;38.11;94394.31;4976153;28;7307;-56
2023/07/31 01:42:53;;;;;;;;;;;;;;;29.05;37.78;94392.84;4989725;28;8425;-56
2023/07/31 01:45:23;;;;;;;;;;;;;;;29.03;36.90;94389.88;4973328;28;7569;-56
2023/07/31 01:47:49;;;;;;;;;;;;;;;29.03;37.32;94393.38;4974828;28;7244;-55
2023/07/31 01:50:20;;;;;;;;;;;;;;;29.02;37.32;94389.13;4975166;28;7306;-56
2023/07/31 01:52:46;;;;;;;;;;;;;;;29.02;38.00;94394.66;4973587;28;8747;-56
2023/07/31 01:55:16;;;;;;;;;;;;;;;29.01;37.30;94384.84;4978156;28;7146;-56
2023/07/31 01:57:49;;;;;;;;;;;;;;;28.99;37.48;94372.84;4973310;28;9044;-56
2023/07/31 02:00:20;;;;;;;;;;;;;;;28.98;36.96;94372.09;4992242;28;7239;-56
2023/07/31 02:02:46;;;;;;;;;;;;;;;29.01;37.73;94368.22;5008284;28;9458;-56
2023/07/31 02:05:14;;;;;;;;;;;;;;;28.99;37.31;94359.00;5049428;28;9303;-56
2023/07/31 02:07:47;;;;;;;;;;;;;;;29.01;37.32;94362.69;5019044;28;9075;-56
2023/07/31 02:10:14;;;;;;;;;;;;;;;29.00;37.74;94363.22;5044226;28;7171;-56
2023/07/31 02:12:46;;;;;;;;;;;;;;;28.98;37.45;94349.94;5050154;28;6978;-56
2023/07/31 02:15:19;;;;;;;;;;;;;;;28.99;37.92;94348.63;5059193;28;8729;-56
2023/07/31 02:18:05;;;;;;;;;;;;;;;28.99;37.63;94348.63;5051861;28;7204;-56
2023/07/31 02:20:48;;;;;;;;;;;;;;;28.98;37.56;94340.88;5044456;28;9134;-56
2023/07/31 02:23:34;;;;;;;;;;;;;;;28.95;37.87;94334.38;5055691;28;7232;-56
2023/07/31 02:26:04;;;;;;;;;;;;;;;28.95;37.32;94339.91;5062675;28;7664;-56
2023/07/31 02:28:30;;;;;;;;;;;;;;;28.96;37.80;94340.66;5046444;28;8708;-56
2023/07/31 02:31:01;;;;;;;;;;;;;;;28.96;37.40;94338.66;5065429;28;7201;-56
2023/07/31 02:33:42;;;;;;;;;;;;;;;28.95;37.43;94339.91;5051951;28;8721;-56
2023/07/31 02:36:08;;;;;;;;;;;;;;;28.92;37.66;94345.78;5019444;28;7531;-64
2023/07/31 02:38:45;;;;;;;;;;;;;;;28.91;37.83;94336.72;5051810;28;6993;-64
2023/07/31 02:41:11;;;;;;;;;;;;;;;28.91;37.10;94347.81;5032062;28;7513;-64
2023/07/31 02:43:38;;;;;;;;;;;;;;;28.91;37.63;94344.28;5055215;28;9229;-64
2023/07/31 02:46:06;;;;;;;;;;;;;;;28.90;37.31;94335.25;5058948;28;7235;-64
2023/07/31 02:48:34;;;;;;;;;;;;;;;28.91;37.21;94345.03;5034121;28;7315;-64
2023/07/31 02:51:03;;;;;;;;;;;;;;;28.90;36.97;94340.78;5034390;28;7286;-64
2023/07/31 02:53:52;;;;;;;;;;;;;;;28.92;37.00;94351.31;5034529;28;6939;-64
2023/07/31 02:56:29;;;;;;;;;;;;;;;28.92;37.17;94334.72;5043015;28;7352;-64
2023/07/31 02:58:55;;;;;;;;;;;;;;;28.90;37.54;94340.78;5058517;28;7290;-64
2023/07/31 03:01:23;;;;;;;;;;;;;;;28.86;37.32;94343.13;5036366;28;6949;-64
2023/07/31 03:03:57;;;;;;;;;;;;;;;28.88;37.70;94346.09;5051560;28;8089;-64
2023/07/31 03:06:46;;;;;;;;;;;;;;;28.86;37.47;94337.56;5051862;28;7151;-64
2023/07/31 03:09:37;;;;;;;;;;;;;;;28.88;37.33;94342.59;5068416;28;7006;-64
2023/07/31 03:12:05;;;;;;;;;;;;;;;28.86;37.24;94326.50;5026320;28;7122;-64
2023/07/31 03:14:43;;;;;;;;;;;;;;;28.88;37.52;94339.81;5035229;28;9457;-64
2023/07/31 03:17:16;;;;;;;;;;;;;;;28.85;36.95;94330.56;5027272;28;9099;-64
2023/07/31 03:19:52;;;;;;;;;;;;;;;28.86;37.69;94332.03;5039057;28;7026;-63
2023/07/31 03:22:23;;;;;;;;;;;;;;;28.87;37.42;94333.53;5021616;28;6985;-64
2023/07/31 03:24:52;;;;;;;;;;;;;;;28.86;37.28;94345.88;5027124;28;7319;-63
2023/07/31 03:27:21;;;;;;;;;;;;;;;28.85;37.57;94347.16;5051916;28;7061;-64
2023/07/31 03:29:59;;;;;;;;;;;;;;;28.81;37.43;94344.00;5035168;28;6967;-64
2023/07/31 03:32:26;;;;;;;;;;;;;;;28.83;37.33;94349.72;5059414;28;8709;-64
2023/07/31 03:34:52;;;;;;;;;;;;;;;28.84;37.70;94345.66;5031659;28;6993;-64
2023/07/31 03:37:17;;;;;;;;;;;;;;;28.84;37.24;94351.22;5042095;28;7179;-64
2023/07/31 03:39:53;;;;;;;;;;;;;;;28.83;36.78;94346.97;5027620;28;6938;-64
2023/07/31 03:42:20;;;;;;;;;;;;;;;28.79;37.62;94352.09;5046875;28;7710;-64
2023/07/31 03:44:46;;;;;;;;;;;;;;;28.77;37.72;94353.88;5032106;28;7431;-62
2023/07/31 03:47:15;;;;;;;;;;;;;;;28.77;37.44;94354.63;5030460;28;8860;-62
2023/07/31 03:49:45;;;;;;;;;;;;;;;28.75;37.72;94353.69;5050081;28;7463;-62
2023/07/31 03:52:11;;;;;;;;;;;;;;;28.78;37.18;94355.34;5032966;28;9133;-62
2023/07/31 03:54:40;;;;;;;;;;;;;;;28.78;36.83;94353.34;5034060;28;9071;-62
2023/07/31 03:57:18;;;;;;;;;;;;;;;28.76;37.54;94355.91;5047056;28;9065;-62
2023/07/31 03:59:44;;;;;;;;;;;;;;;28.74;37.43;94357.72;5035138;28;9118;-62
2023/07/31 04:02:18;;;;;;;;;;;;;;;28.73;37.74;94362.50;5032825;28;9102;-62
2023/07/31 04:04:45;;;;;;;;;;;;;;;28.74;37.25;94366.75;5066391;28;7006;-62
2023/07/31 04:07:11;;;;;;;;;;;;;;;28.73;37.17;94370.78;5033305;28;7266;-62
2023/07/31 04:09:40;;;;;;;;;;;;;;;28.74;37.98;94363.25;5038173;28;9404;-62
2023/07/31 04:12:08;;;;;;;;;;;;;;;28.75;37.76;94375.81;5054298;28;7041;-62
2023/07/31 04:14:47;;;;;;;;;;;;;;;28.72;37.36;94374.09;5036465;28;7308;-62
2023/07/31 04:17:17;;;;;;;;;;;;;;;28.74;37.51;94369.53;5037701;28;9092;-62
2023/07/31 04:19:47;;;;;;;;;;;;;;;28.74;37.23;94375.06;5069660;28;7045;-62
2023/07/31 04:22:22;;;;;;;;;;;;;;;28.71;37.32;94375.41;5038079;28;9566;-62
2023/07/31 04:24:51;;;;;;;;;;;;;;;28.74;37.88;94377.84;5026500;28;7705;-62
2023/07/31 04:27:26;;;;;;;;;;;;;;;28.73;36.96;94378.38;5060326;28;7790;-62
2023/07/31 04:30:01;;;;;;;;;;;;;;;28.71;37.27;94369.88;5055096;28;7236;-62
2023/07/31 04:32:31;;;;;;;;;;;;;;;28.71;37.30;94373.34;5037630;28;9044;-62
2023/07/31 04:35:05;;;;;;;;;;;;;;;28.72;36.93;94365.81;5046351;28;6991;-62
2023/07/31 04:37:31;;;;;;;;;;;;;;;28.74;36.91;94379.84;5071343;28;7930;-62
2023/07/31 04:40:05;;;;;;;;;;;;;;;28.74;36.98;94385.38;5059090;28;7464;-62
2023/07/31 04:42:34;;;;;;;;;;;;;;;28.70;37.16;94385.72;5044814;28;7330;-62
2023/07/31 04:45:34;;;;;;;;;;;;;;;28.70;37.26;94385.72;5036963;28;8762;-62
2023/07/31 04:48:19;;;;;;;;;;;;;;;28.71;37.25;94378.16;5013252;28;7470;-63
2023/07/31 04:51:02;;;;;;;;;;;;;;;28.70;37.01;94385.72;5015086;28;8811;-62
2023/07/31 04:54:05;;;;;;;;;;;;;;;28.70;36.83;94380.19;5002497;28;8916;-62
2023/07/31 04:56:42;;;;;;;;;;;;;;;28.69;37.19;94384.22;4934326;28;7004;-55
2023/07/31 04:59:09;;;;;;;;;;;;;;;28.67;36.87;94374.94;4937021;28;7080;-55
2023/07/31 05:01:48;;;;;;;;;;;;;;;28.67;37.19;94380.47;4938499;28;7126;-55
2023/07/31 05:04:22;;;;;;;;;;;;;;;28.67;37.79;94370.16;4929443;29;6950;-55
2023/07/31 05:06:50;;;;;;;;;;;;;;;28.68;37.11;94373.69;4936026;29;6974;-55
2023/07/31 05:09:32;;;;;;;;;;;;;;;28.65;37.18;94383.78;4934255;28;7242;-55
2023/07/31 05:11:58;;;;;;;;;;;;;;;28.62;37.42;94386.88;4935580;29;9066;-55
2023/07/31 05:14:26;;;;;;;;;;;;;;;28.63;37.33;94380.06;4935440;29;7366;-55
2023/07/31 05:17:03;;;;;;;;;;;;;;;28.62;37.75;94379.34;4935513;29;7588;-55
2023/07/31 05:19:31;;;;;;;;;;;;;;;28.58;37.71;94383.69;4934612;28;7322;-55
2023/07/31 05:22:07;;;;;;;;;;;;;;;28.63;37.54;94380.81;4931175;29;7172;-55
2023/07/31 05:24:44;;;;;;;;;;;;;;;28.64;37.59;94381.56;4966528;28;7221;-55
2023/07/31 05:27:18;;;;;;;;;;;;;;;28.65;37.20;94377.50;4966386;28;7437;-55
2023/07/31 05:29:46;;;;;;;;;;;;;;;28.63;37.53;94369.75;5002204;28;8958;-55
2023/07/31 05:32:12;;;;;;;;;;;;;;;28.64;37.30;94376.78;5035522;28;9046;-55
2023/07/31 05:34:38;;;;;;;;;;;;;;;28.64;37.40;94368.47;5042284;28;7432;-55
2023/07/31 05:37:04;;;;;;;;;;;;;;;28.62;37.53;94367.50;5036514;28;7396;-55
2023/07/31 05:39:32;;;;;;;;;;;;;;;28.61;37.37;94372.28;5035386;28;7248;-55
2023/07/31 05:41:59;;;;;;;;;;;;;;;28.61;37.96;94372.28;5066123;28;7353;-55
2023/07/31 05:44:33;;;;;;;;;;;;;;;28.64;36.96;94378.78;5035360;28;7201;-55
2023/07/31 05:47:02;;;;;;;;;;;;;;;28.64;37.63;94376.03;5040377;28;7177;-55
2023/07/31 05:49:40;;;;;;;;;;;;;;;28.63;37.37;94377.28;5044908;28;9190;-55
2023/07/31 05:52:33;;;;;;;;;;;;;;;28.64;37.72;94385.09;5035952;28;7282;-55
2023/07/31 05:55:04;;;;;;;;;;;;;;;28.63;37.16;94386.34;5050143;28;7207;-54
2023/07/31 05:57:33;;;;;;;;;;;;;;;28.63;37.69;94386.34;5034740;28;7272;-55
2023/07/31 06:00:20;;;;;;;;;;;;;;;28.64;37.85;94390.63;5019908;28;7067;-55
2023/07/31 06:02:53;;;;;;;;;;;;;;;28.64;37.71;94387.84;5031299;28;7214;-55
2023/07/31 06:05:21;;;;;;;;;;;;;;;28.64;37.42;94376.78;5027376;28;7202;-63
2023/07/31 06:07:48;;;;;;;;;;;;;;;28.65;37.41;94366.44;5023250;28;7265;-63
2023/07/31 06:10:15;;;;;;;;;;;;;;;28.67;37.58;94358.34;5031705;28;8737;-62
2023/07/31 06:12:43;;;;;;;;;;;;;;;28.64;37.24;94368.47;5029239;28;7273;-63
2023/07/31 06:15:11;;;;;;;;;;;;;;;28.66;37.78;94379.75;5029482;28;9084;-63
2023/07/31 06:17:37;;;;;;;;;;;;;;;28.64;37.17;94384.34;5035117;28;6969;-62
2023/07/31 06:20:07;;;;;;;;;;;;;;;28.61;37.10;94390.91;5025634;28;7258;-62
2023/07/31 06:22:34;;;;;;;;;;;;;;;28.59;37.42;94380.38;5046017;28;9088;-63
2023/07/31 06:25:05;;;;;;;;;;;;;;;28.60;36.94;94379.09;5026857;28;8554;-63
2023/07/31 06:28:04;;;;;;;;;;;;;;;28.62;37.71;94379.34;5030352;28;7085;-63
2023/07/31 06:30:30;;;;;;;;;;;;;;;28.61;37.32;94388.91;4974669;28;7965;-62
2023/07/31 06:32:57;;;;;;;;;;;;;;;28.61;37.59;94386.13;4934055;28;8693;-63
2023/07/31 06:35:27;;;;;;;;;;;;;;;28.63;37.72;94385.59;4933049;28;7299;-63
2023/07/31 06:37:53;;;;;;;;;;;;;;;28.60;37.47;94370.06;4950072;28;7160;-63
2023/07/31 06:40:23;;;;;;;;;;;;;;;28.59;37.71;94346.44;4935490;28;7253;-62
2023/07/31 06:43:07;;;;;;;;;;;;;;;28.58;37.10;94351.22;4968538;28;9112;-62
2023/07/31 06:45:48;;;;;;;;;;;;;;;28.57;37.42;94344.19;4952327;28;7172;-63
2023/07/31 06:48:14;;;;;;;;;;;;;;;28.58;37.00;94356.03;4950505;28;8632;-63
2023/07/31 06:50:50;;;;;;;;;;;;;;;28.55;37.63;94343.22;4966595;28;7236;-63
2023/07/31 06:53:20;;;;;;;;;;;;;;;28.59;37.42;94341.66;4945551;28;7234;-63
2023/07/31 06:55:53;;;;;;;;;;;;;;;28.61;37.67;94349.41;4950656;28;7244;-62
2023/07/31 06:58:20;;;;;;;;;;;;;;;28.60;37.39;94345.88;4966742;28;9128;-63
2023/07/31 07:00:55;;;;;;;;;;;;;;;28.60;37.96;94354.19;4951332;28;7084;-63
2023/07/31 07:03:30;;;;;;;;;;;;;;;28.63;38.20;94357.91;4950154;28;7158;-63
2023/07/31 07:05:59;;;;;;;;;;;;;;;28.64;37.38;94354.63;4984259;28;9432;-63
2023/07/31 07:08:55;;;;;;;;;;;;;;;28.63;37.98;94358.66;5032678;28;7185;-63
2023/07/31 07:11:40;;;;;;;;;;;;;;;28.63;38.18;94357.91;4999118;28;7365;-62
2023/07/31 07:14:06;;;;;;;;;;;;;;;28.63;38.38;94352.38;5000820;28;7015;-64
2023/07/31 07:16:41;;;;;;;;;;;;;;;28.62;38.72;94339.84;4971835;28;6859;-61
2023/07/31 07:19:14;;;;;;;;;;;;;;;28.65;38.56;94336.00;4989354;28;7475;-62
2023/07/31 07:22:09;;;;;;;;;;;;;;;28.67;38.30;94328.66;5007954;28;7337;-62
2023/07/31 07:24:41;;;;;;;;;;;;;;;28.68;38.85;94329.41;4966081;28;7333;-61
2023/07/31 07:27:21;;;;;;;;;;;;;;;28.68;39.14;94310.78;4952812;28;6995;-61
2023/07/31 07:30:06;;;;;;;;;;;;;;;28.67;38.86;94300.22;4971092;28;7128;-61
2023/07/31 07:32:34;;;;;;;;;;;;;;;28.64;38.87;94306.84;4964219;28;7811;-61
2023/07/31 07:35:01;;;;;;;;;;;;;;;28.65;38.82;94320.13;4954749;28;7272;-61
2023/07/31 07:37:27;;;;;;;;;;;;;;;28.61;38.42;94311.41;4947926;28;9011;-61
2023/07/31 07:39:53;;;;;;;;;;;;;;;28.60;38.34;94312.69;4967000;28;7889;-61
2023/07/31 07:42:19;;;;;;;;;;;;;;;28.60;41.74;94320.25;4968092;28;9164;-61
2023/07/31 07:44:52;;;;;;;;;;;;;;;28.65;39.55;94328.44;4973616;28;7222;-61
2023/07/31 07:47:18;;;;;;;;;;;;;;;28.60;39.19;94323.75;4974799;28;7080;-61
2023/07/31 07:49:44;;;;;;;;;;;;;;;28.61;38.50;94316.94;4965911;28;6955;-61
2023/07/31 07:52:40;;;;;;;;;;;;;;;28.59;38.50;94319.50;4970114;28;7235;-62
2023/07/31 07:55:07;;;;;;;;;;;;;;;28.59;38.28;94308.44;4931682;28;7154;-61
2023/07/31 07:57:46;;;;;;;;;;;;;;;28.59;38.24;94324.28;4970577;28;7270;-62
2023/07/31 08:00:19;;;;;;;;;;;;;;;28.57;38.22;94318.50;4942895;28;8230;-61
2023/07/31 08:02:46;;;;;;;;;;;;;;;28.60;37.93;94320.25;4987142;28;9193;-61
2023/07/31 08:05:13;;;;;;;;;;;;;;;28.59;37.93;94329.81;4988295;28;7886;-62
2023/07/31 08:07:39;;;;;;;;;;;;;;;28.60;37.52;94325.78;4999581;28;9048;-62
2023/07/31 08:10:12;;;;;;;;;;;;;;;28.60;38.00;94339.63;4967552;28;7016;-62
2023/07/31 08:12:51;;;;;;;;;;;;;;;28.61;37.57;94338.34;4981493;28;9334;-62
2023/07/31 08:15:18;;;;;;;;;;;;;;;28.60;37.71;94345.16;4997027;28;7221;-61
2023/07/31 08:17:46;;;;;;;;;;;;;;;28.59;37.74;94349.94;4971569;28;8782;-62
2023/07/31 08:20:14;;;;;;;;;;;;;;;28.60;37.99;94354.19;4962840;28;7113;-62
2023/07/31 08:22:52;;;;;;;;;;;;;;;28.64;37.86;94343.56;4971102;28;7147;-61
2023/07/31 08:25:18;;;;;;;;;;;;;;;28.65;37.42;94336.75;4966230;28;6986;-62
2023/07/31 08:28:01;;;;;;;;;;;;;;;28.66;37.41;94327.19;4981487;28;7293;-62
2023/07/31 08:30:47;;;;;;;;;;;;;;;28.67;37.31;94336.94;4973095;28;7429;-62
2023/07/31 08:33:23;;;;;;;;;;;;;;;28.66;37.79;94346.53;5033383;28;6990;-62
2023/07/31 08:35:55;;;;;;;;;;;;;;;28.65;37.98;94339.50;5037199;28;7095;-61
2023/07/31 08:38:21;;;;;;;;;;;;;;;28.67;37.65;94338.97;5028602;28;7214;-61
2023/07/31 08:40:53;;;;;;;;;;;;;;;28.68;37.61;94330.16;5048613;28;7100;-62
2023/07/31 08:43:27;;;;;;;;;;;;;;;28.70;38.15;94315.78;5067214;28;7230;-61
2023/07/31 08:45:56;;;;;;;;;;;;;;;28.70;37.22;94311.00;5051199;28;7493;-61
2023/07/31 08:48:45;;;;;;;;;;;;;;;28.71;37.87;94314.50;5050375;28;8441;-61
2023/07/31 08:51:14;;;;;;;;;;;;;;;28.69;38.10;94306.72;5036118;28;7403;-62
2023/07/31 08:53:44;;;;;;;;;;;;;;;28.73;37.12;94317.47;5049549;28;7183;-61
2023/07/31 08:56:18;;;;;;;;;;;;;;;28.72;37.24;94308.44;5047769;28;7104;-61
2023/07/31 08:58:59;;;;;;;;;;;;;;;28.72;37.60;94302.88;5027029;28;8616;-62
2023/07/31 09:01:30;;;;;;;;;;;;;;;28.72;37.48;94299.38;5029681;28;7117;-62
2023/07/31 09:04:06;;;;;;;;;;;;;;;28.71;38.08;94287.56;5033561;28;7242;-62
2023/07/31 09:06:44;;;;;;;;;;;;;;;28.73;37.94;94287.75;5036343;28;8023;-62
2023/07/31 09:09:12;;;;;;;;;;;;;;;28.73;37.66;94293.28;5033493;28;7612;-62
2023/07/31 09:11:38;;;;;;;;;;;;;;;28.71;38.00;94287.56;5037214;28;7213;-62
2023/07/31 09:14:10;;;;;;;;;;;;;;;28.70;37.60;94290.84;5034039;28;9002;-62
2023/07/31 09:16:54;;;;;;;;;;;;;;;28.70;37.75;94288.09;5035673;28;7168;-61
2023/07/31 09:19:48;;;;;;;;;;;;;;;28.72;37.61;94286.28;5028502;28;7481;-62
2023/07/31 09:22:15;;;;;;;;;;;;;;;28.70;37.86;94286.06;5033227;28;9537;-62
2023/07/31 09:24:46;;;;;;;;;;;;;;;28.71;37.76;94279.25;5033496;28;8713;-62
2023/07/31 09:27:13;;;;;;;;;;;;;;;28.74;37.10;94275.41;5053351;28;7242;-62
2023/07/31 09:29:42;;;;;;;;;;;;;;;28.71;37.61;94279.25;5052885;28;7907;-61
2023/07/31 09:32:18;;;;;;;;;;;;;;;28.75;37.87;94276.16;5034024;28;6995;-61
2023/07/31 09:34:44;;;;;;;;;;;;;;;28.72;37.55;94283.50;5051680;28;7218;-64
2023/07/31 09:37:12;;;;;;;;;;;;;;;28.78;37.96;94286.16;5034842;28;8756;-64
2023/07/31 09:39:54;;;;;;;;;;;;;;;28.77;37.43;94279.91;5036519;28;7105;-64
2023/07/31 09:42:26;;;;;;;;;;;;;;;28.76;37.83;94267.31;5068541;28;7319;-64
2023/07/31 09:44:52;;;;;;;;;;;;;;;28.78;38.04;94269.56;5065893;28;7243;-64
2023/07/31 09:47:36;;;;;;;;;;;;;;;28.76;37.43;94272.09;5028939;28;7338;-64
2023/07/31 09:50:07;;;;;;;;;;;;;;;28.79;38.09;94277.34;5043255;28;7431;-64
2023/07/31 09:52:33;;;;;;;;;;;;;;;28.80;36.97;94276.03;5069337;28;9166;-64
2023/07/31 09:55:07;;;;;;;;;;;;;;;28.81;37.43;94272.00;5035185;28;8749;-64
2023/07/31 09:57:49;;;;;;;;;;;;;;;28.82;37.19;94267.19;5037605;28;8310;-64
2023/07/31 10:00:29;;;;;;;;;;;;;;;28.83;37.62;94261.16;5049103;28;8772;-63
2023/07/31 10:03:04;;;;;;;;;;;;;;;28.83;36.86;94260.41;5035040;28;7215;-64
2023/07/31 10:05:53;;;;;;;;;;;;;;;28.81;37.69;94252.63;5046041;28;7307;-63
2023/07/31 10:08:23;;;;;;;;;;;;;;;28.82;36.90;94265.19;5031491;28;7314;-63
2023/07/31 10:10:49;;;;;;;;;;;;;;;28.83;37.20;94260.41;5033516;28;9370;-64
2023/07/31 10:13:18;;;;;;;;;;;;;;;28.80;36.79;94253.91;5033150;28;9589;-63
2023/07/31 10:15:46;;;;;;;;;;;;;;;28.85;37.09;94239.19;5055190;28;7258;-64
2023/07/31 10:18:12;;;;;;;;;;;;;;;28.85;37.18;94241.22;5028831;28;6995;-64
2023/07/31 10:20:41;;;;;;;;;;;;;;;28.83;37.10;94227.91;5034041;28;7014;-64
2023/07/31 10:23:10;;;;;;;;;;;;;;;28.84;37.70;94232.16;5052331;28;8419;-64
2023/07/31 10:25:41;;;;;;;;;;;;;;;28.81;37.62;94236.03;5035036;28;7393;-64
2023/07/31 10:28:09;;;;;;;;;;;;;;;28.82;37.70;94225.66;5053860;28;7410;-64
2023/07/31 10:30:39;;;;;;;;;;;;;;;28.81;37.64;94224.94;5035697;28;8838;-64
2023/07/31 10:33:07;;;;;;;;;;;;;;;28.83;37.68;94222.38;5033320;28;9228;-64
2023/07/31 10:35:36;;;;;;;;;;;;;;;28.82;37.64;94218.13;5050431;28;9106;-63
2023/07/31 10:38:12;;;;;;;;;;;;;;;28.85;37.29;94230.16;5060896;28;7490;-64
2023/07/31 10:41:09;;;;;;;;;;;;;;;28.86;37.24;94232.38;5042106;28;7189;-64
2023/07/31 10:43:37;;;;;;;;;;;;;;;28.86;37.60;94221.28;5033709;28;7428;-64
2023/07/31 10:46:16;;;;;;;;;;;;;;;28.88;36.68;94215.97;5043686;28;7251;-65
2023/07/31 10:49:03;;;;;;;;;;;;;;;28.91;36.87;94212.13;5032734;28;7228;-65
2023/07/31 10:51:49;;;;;;;;;;;;;;;28.91;36.55;94211.38;5047753;28;9103;-65
2023/07/31 10:54:22;;;;;;;;;;;;;;;28.90;37.44;94209.91;5032682;28;7578;-65
2023/07/31 10:56:52;;;;;;;;;;;;;;;28.93;37.29;94208.81;5030144;28;7186;-64
2023/07/31 10:59:28;;;;;;;;;;;;;;;28.93;37.07;94209.56;5044164;28;7277;-65
2023/07/31 11:02:04;;;;;;;;;;;;;;;28.93;37.28;94203.28;5047800;28;7354;-64
2023/07/31 11:04:33;;;;;;;;;;;;;;;28.93;37.45;94197.75;5031337;28;7163;-64
2023/07/31 11:07:03;;;;;;;;;;;;;;;28.92;37.44;94185.94;5027089;28;7247;-64
2023/07/31 11:09:31;;;;;;;;;;;;;;;28.94;36.89;94177.84;5028538;28;7121;-64
2023/07/31 11:12:17;;;;;;;;;;;;;;;28.95;37.36;94173.03;5043366;28;7074;-64
2023/07/31 11:15:04;;;;;;;;;;;;;;;28.95;37.08;94168.25;5030983;28;8230;-64
2023/07/31 11:17:44;;;;;;;;;;;;;;;28.95;37.39;94159.19;5040938;28;8998;-63
2023/07/31 11:20:24;;;;;;;;;;;;;;;28.95;37.43;94157.16;5027210;28;9031;-63
2023/07/31 11:23:10;;;;;;;;;;;;;;;28.94;37.92;94155.69;5031309;28;9153;-64
2023/07/31 11:25:40;;;;;;;;;;;;;;;28.95;37.77;94145.34;5061247;28;7008;-63
2023/07/31 11:28:18;;;;;;;;;;;;;;;28.98;37.54;94147.03;5044226;28;9555;-64
2023/07/31 11:30:46;;;;;;;;;;;;;;;29.01;37.18;94145.97;5019717;28;7700;-64
2023/07/31 11:33:13;;;;;;;;;;;;;;;29.01;37.51;94135.63;5030530;28;6930;-65
2023/07/31 11:36:08;;;;;;;;;;;;;;;29.02;37.28;94137.13;5051532;28;7185;-65
2023/07/31 11:38:35;;;;;;;;;;;;;;;29.00;37.50;94131.38;5034652;28;7067;-65
2023/07/31 11:41:33;;;;;;;;;;;;;;;29.02;37.35;94133.59;5034068;28;7194;-65
2023/07/31 11:44:00;;;;;;;;;;;;;;;29.02;36.97;94134.34;5010206;28;7281;-65
2023/07/31 11:46:26;;;;;;;;;;;;;;;29.01;37.95;94143.94;4991792;28;7311;-65
2023/07/31 11:48:59;;;;;;;;;;;;;;;29.03;37.12;94135.84;4977535;28;8430;-65
2023/07/31 11:51:39;;;;;;;;;;;;;;;29.03;37.42;94138.63;5008291;28;8135;-65
2023/07/31 11:54:19;;;;;;;;;;;;;;;29.05;37.31;94132.53;5005493;28;7006;-65
2023/07/31 11:57:08;;;;;;;;;;;;;;;29.06;37.51;94139.53;4987856;28;7471;-65
2023/07/31 11:59:38;;;;;;;;;;;;;;;29.06;37.30;94134.75;4991013;28;7235;-66
2023/07/31 12:02:21;;;;;;;;;;;;;;;29.08;37.47;94126.66;5008022;28;7127;-65
2023/07/31 12:04:49;;;;;;;;;;;;;;;29.09;37.94;94117.06;5002027;28;10295;-65
2023/07/31 12:07:53;;;;;;;;;;;;;;;29.13;38.21;94118.75;4989363;28;9376;-65
2023/07/31 12:10:33;;;;;;;;;;;;;;;29.13;37.71;94113.94;4993716;28;9352;-65
2023/07/31 12:13:24;;;;;;;;;;;;;;;29.17;37.49;94113.66;4994032;28;7269;-65
2023/07/31 12:15:57;;;;;;;;;;;;;;;29.18;37.95;94110.34;4999507;28;9153;-65
2023/07/31 12:18:44;;;;;;;;;;;;;;;29.20;37.55;94115.31;4996867;28;8203;-65
2023/07/31 12:21:19;;;;;;;;;;;;;;;29.18;37.90;94115.13;5042629;28;9127;-65
2023/07/31 12:23:56;;;;;;;;;;;;;;;29.20;37.71;94110.53;5026590;28;7223;-66
2023/07/31 12:26:48;;;;;;;;;;;;;;;29.23;37.25;94108.72;5048823;28;7418;-66
2023/07/31 12:29:15;;;;;;;;;;;;;;;29.24;37.33;94104.66;5063018;28;7168;-66
2023/07/31 12:31:44;;;;;;;;;;;;;;;29.25;38.26;94106.13;5061325;28;7003;-66
2023/07/31 12:34:28;;;;;;;;;;;;;;;29.23;38.15;94092.09;5032902;28;6997;-66
2023/07/31 12:36:54;;;;;;;;;;;;;;;29.25;37.33;94092.28;5045443;28;7240;-65
2023/07/31 12:39:29;;;;;;;;;;;;;;;29.25;38.33;94092.28;5055812;28;6965;-65
2023/07/31 12:42:06;;;;;;;;;;;;;;;29.27;38.00;94089.72;5054952;28;8829;-66
2023/07/31 12:44:41;;;;;;;;;;;;;;;29.29;37.74;94095.47;5038030;28;6988;-66
2023/07/31 12:47:09;;;;;;;;;;;;;;;29.30;38.66;94096.94;5055377;28;7286;-66
2023/07/31 12:49:42;;;;;;;;;;;;;;;29.31;37.75;94090.88;5071533;28;6981;-65
2023/07/31 12:52:39;;;;;;;;;;;;;;;29.31;38.14;94092.88;5063412;28;9061;-66
2023/07/31 12:55:10;;;;;;;;;;;;;;;29.33;38.50;94093.09;5022876;28;7252;-65
2023/07/31 12:57:37;;;;;;;;;;;;;;;29.35;38.25;94084.97;4993183;28;7241;-66
2023/07/31 13:00:04;;;;;;;;;;;;;;;29.33;38.32;94082.00;4991532;28;7319;-66
2023/07/31 13:02:42;;;;;;;;;;;;;;;29.35;38.53;94074.63;4987863;28;7045;-66
2023/07/31 13:05:40;;;;;;;;;;;;;;;29.36;38.50;94064.31;4996973;28;9061;-65
2023/07/31 13:08:17;;;;;;;;;;;;;;;29.36;37.77;94051.16;4989827;28;7313;-65
2023/07/31 13:10:56;;;;;;;;;;;;;;;29.39;38.73;94055.63;4951081;28;7332;-66
2023/07/31 13:13:48;;;;;;;;;;;;;;;29.39;37.91;94050.09;4956892;28;7250;-66
2023/07/31 13:16:14;;;;;;;;;;;;;;;29.42;38.63;94042.72;4968527;28;9647;-65
2023/07/31 13:18:53;;;;;;;;;;;;;;;29.44;38.74;94040.16;4990050;28;7234;-65
2023/07/31 13:21:21;;;;;;;;;;;;;;;29.45;38.83;94044.41;4988355;28;7510;-65
2023/07/31 13:24:07;;;;;;;;;;;;;;;29.47;38.77;94041.84;4973301;28;7069;-65
2023/07/31 13:26:49;;;;;;;;;;;;;;;29.47;37.95;94042.56;4990724;28;7360;-65
2023/07/31 13:29:25;;;;;;;;;;;;;;;29.50;38.58;94044.25;4973774;28;7250;-65
2023/07/31 13:32:01;;;;;;;;;;;;;;;29.50;38.52;94043.50;4948445;28;8616;-65
2023/07/31 13:34:39;;;;;;;;;;;;;;;29.50;38.78;94041.47;4957401;28;7230;-65
2023/07/31 13:37:08;;;;;;;;;;;;;;;29.51;38.23;94042.97;4957416;28;9408;-65